sensor_id;sensor_type;location;lat;lon;timestamp;pressure;altitude;pressure_sealevel;temperature;humidity
14120;BME280;7138;49.246;9.100;2023-12-29T00:00:55;98933.13;;;9.73;78.17
14120;BME280;7138;49.246;9.100;2023-12-29T00:03:21;98933.13;;;9.73;78.40
14120;BME280;7138;49.246;9.100;2023-12-29T00:05:47;98921.13;;;9.74;78.49
14120;BME280;7138;49.246;9.100;2023-12-29T00:08:13;98929.56;;;9.72;78.56
14120;BME280;7138;49.246;9.100;2023-12-29T00:10:40;98927.19;;;9.76;78.53
14120;BME280;7138;49.246;9.100;2023-12-29T00:13:06;98925.91;;;9.78;78.25
14120;BME280;7138;49.246;9.100;2023-12-29T00:15:32;98918.41;;;9.74;78.31
14120;BME280;7138;49.246;9.100;2023-12-29T00:17:57;98919.94;;;9.81;78.29
14120;BME280;7138;49.246;9.100;2023-12-29T00:20:23;98918.75;;;9.77;78.46
14120;BME280;7138;49.246;9.100;2023-12-29T00:22:49;98913.66;;;9.81;78.61
14120;BME280;7138;49.246;9.100;2023-12-29T00:25:15;98914.13;;;9.90;78.42
14120;BME280;7138;49.246;9.100;2023-12-29T00:27:42;98910.53;;;9.89;78.36
14120;BME280;7138;49.246;9.100;2023-12-29T00:30:09;98906.00;;;9.95;78.00
14120;BME280;7138;49.246;9.100;2023-12-29T00:32:35;98914.13;;;9.90;78.21
14120;BME280;7138;49.246;9.100;2023-12-29T00:35:01;98909.47;;;9.90;78.15
14120;BME280;7138;49.246;9.100;2023-12-29T00:37:27;98912.22;;;9.90;78.23
14120;BME280;7138;49.246;9.100;2023-12-29T00:39:52;98914.53;;;9.98;78.01
14120;BME280;7138;49.246;9.100;2023-12-29T00:42:18;98915.28;;;9.94;77.91
14120;BME280;7138;49.246;9.100;2023-12-29T00:44:45;98906.13;;;9.88;77.96
14120;BME280;7138;49.246;9.100;2023-12-29T00:47:11;98922.09;;;9.79;78.25
14120;BME280;7138;49.246;9.100;2023-12-29T00:49:39;98920.28;;;9.85;78.02
14120;BME280;7138;49.246;9.100;2023-12-29T00:52:05;98915.78;;;9.91;78.17
14120;BME280;7138;49.246;9.100;2023-12-29T00:54:31;98914.19;;;9.95;77.81
14120;BME280;7138;49.246;9.100;2023-12-29T00:56:57;98903.03;;;9.96;77.80
14120;BME280;7138;49.246;9.100;2023-12-29T00:59:23;98907.16;;;9.99;77.77
14120;BME280;7138;49.246;9.100;2023-12-29T01:01:50;98910.53;;;10.01;77.02
14120;BME280;7138;49.246;9.100;2023-12-29T01:04:16;98912.06;;;9.97;77.32
14120;BME280;7138;49.246;9.100;2023-12-29T01:06:42;98910.41;;;9.96;77.84
14120;BME280;7138;49.246;9.100;2023-12-29T01:09:07;98909.91;;;9.99;77.64
14120;BME280;7138;49.246;9.100;2023-12-29T01:11:35;98910.53;;;10.01;77.74
14120;BME280;7138;49.246;9.100;2023-12-29T01:14:00;98903.59;;;9.98;77.53
14120;BME280;7138;49.246;9.100;2023-12-29T01:16:26;98902.53;;;9.99;77.50
14120;BME280;7138;49.246;9.100;2023-12-29T01:18:54;98899.56;;;10.01;77.75
14120;BME280;7138;49.246;9.100;2023-12-29T01:21:19;98904.69;;;9.97;77.71
14120;BME280;7138;49.246;9.100;2023-12-29T01:23:45;98911.81;;;9.98;77.34
14120;BME280;7138;49.246;9.100;2023-12-29T01:26:11;98909.69;;;9.89;77.81
14120;BME280;7138;49.246;9.100;2023-12-29T01:28:37;98918.63;;;9.84;78.26
14120;BME280;7138;49.246;9.100;2023-12-29T01:31:03;98910.31;;;9.91;77.56
14120;BME280;7138;49.246;9.100;2023-12-29T01:33:29;98918.00;;;9.94;77.89
14120;BME280;7138;49.246;9.100;2023-12-29T01:35:56;98920.88;;;9.87;77.78
14120;BME280;7138;49.246;9.100;2023-12-29T01:38:21;98920.78;;;9.82;78.24
14120;BME280;7138;49.246;9.100;2023-12-29T01:40:47;98922.19;;;9.84;78.25
14120;BME280;7138;49.246;9.100;2023-12-29T01:43:13;98916.84;;;9.90;78.20
14120;BME280;7138;49.246;9.100;2023-12-29T01:45:39;98912.41;;;9.89;78.18
14120;BME280;7138;49.246;9.100;2023-12-29T01:48:07;98907.56;;;9.91;78.04
14120;BME280;7138;49.246;9.100;2023-12-29T01:50:34;98908.63;;;9.90;78.09
14120;BME280;7138;49.246;9.100;2023-12-29T01:53:03;98910.53;;;9.89;78.06
14120;BME280;7138;49.246;9.100;2023-12-29T01:55:30;98899.13;;;9.92;78.19
14120;BME280;7138;49.246;9.100;2023-12-29T01:57:57;98904.22;;;10.00;77.99
14120;BME280;7138;49.246;9.100;2023-12-29T02:00:23;98903.03;;;9.96;77.93
14120;BME280;7138;49.246;9.100;2023-12-29T02:02:49;98899.94;;;9.93;77.96
14120;BME280;7138;49.246;9.100;2023-12-29T02:05:16;98892.06;;;9.96;77.91
14120;BME280;7138;49.246;9.100;2023-12-29T02:07:43;98897.22;;;9.93;77.81
14120;BME280;7138;49.246;9.100;2023-12-29T02:10:10;98885.53;;;9.97;77.46
14120;BME280;7138;49.246;9.100;2023-12-29T02:12:39;98891.28;;;9.84;77.90
14120;BME280;7138;49.246;9.100;2023-12-29T02:15:07;98884.97;;;9.83;77.98
14120;BME280;7138;49.246;9.100;2023-12-29T02:17:40;98877.59;;;9.84;77.92
14120;BME280;7138;49.246;9.100;2023-12-29T02:20:09;98878.19;;;9.86;78.09
14120;BME280;7138;49.246;9.100;2023-12-29T02:22:35;98880.09;;;9.85;77.83
14120;BME280;7138;49.246;9.100;2023-12-29T02:25:03;98881.50;;;9.88;77.90
14120;BME280;7138;49.246;9.100;2023-12-29T02:27:41;98876.53;;;9.85;77.75
14120;BME280;7138;49.246;9.100;2023-12-29T02:30:15;98874.88;;;9.84;77.78
14120;BME280;7138;49.246;9.100;2023-12-29T02:32:46;98863.34;;;9.82;77.83
14120;BME280;7138;49.246;9.100;2023-12-29T02:35:17;98841.38;;;9.65;78.07
14120;BME280;7138;49.246;9.100;2023-12-29T02:37:44;98850.28;;;9.72;78.07
14120;BME280;7138;49.246;9.100;2023-12-29T02:40:13;98852.53;;;9.75;77.85
14120;BME280;7138;49.246;9.100;2023-12-29T02:42:45;98852.06;;;9.67;78.18
14120;BME280;7138;49.246;9.100;2023-12-29T02:45:11;98862.06;;;9.73;78.33
14120;BME280;7138;49.246;9.100;2023-12-29T02:47:37;98853.25;;;9.71;78.26
14120;BME280;7138;49.246;9.100;2023-12-29T02:50:04;98851.94;;;9.73;78.34
14120;BME280;7138;49.246;9.100;2023-12-29T02:52:30;98856.84;;;9.71;77.81
14120;BME280;7138;49.246;9.100;2023-12-29T02:54:56;98852.19;;;9.72;77.86
14120;BME280;7138;49.246;9.100;2023-12-29T02:57:23;98848.50;;;9.66;77.49
14120;BME280;7138;49.246;9.100;2023-12-29T02:59:48;98854.47;;;9.63;77.78
14120;BME280;7138;49.246;9.100;2023-12-29T03:02:14;98852.47;;;9.59;77.57
14120;BME280;7138;49.246;9.100;2023-12-29T03:04:40;98856.59;;;9.61;78.04
14120;BME280;7138;49.246;9.100;2023-12-29T03:07:06;98852.22;;;9.60;78.13
14120;BME280;7138;49.246;9.100;2023-12-29T03:09:32;98850.91;;;9.63;77.98
14120;BME280;7138;49.246;9.100;2023-12-29T03:11:58;98849.72;;;9.59;78.12
14120;BME280;7138;49.246;9.100;2023-12-29T03:14:25;98855.44;;;9.57;78.45
14120;BME280;7138;49.246;9.100;2023-12-29T03:16:51;98851.25;;;9.54;78.37
14120;BME280;7138;49.246;9.100;2023-12-29T03:19:17;98851.50;;;9.53;78.45
14120;BME280;7138;49.246;9.100;2023-12-29T03:21:42;98841.63;;;9.64;77.88
14120;BME280;7138;49.246;9.100;2023-12-29T03:24:08;98850.06;;;9.62;78.22
14120;BME280;7138;49.246;9.100;2023-12-29T03:26:34;98852.81;;;9.62;78.12
14120;BME280;7138;49.246;9.100;2023-12-29T03:29:00;98844.00;;;9.60;78.23
14120;BME280;7138;49.246;9.100;2023-12-29T03:31:27;98849.97;;;9.57;78.30
14120;BME280;7138;49.246;9.100;2023-12-29T03:33:53;98853.16;;;9.54;78.55
14120;BME280;7138;49.246;9.100;2023-12-29T03:36:18;98849.00;;;9.63;78.35
14120;BME280;7138;49.246;9.100;2023-12-29T03:38:44;98846.00;;;9.65;78.25
14120;BME280;7138;49.246;9.100;2023-12-29T03:41:10;98839.97;;;9.63;78.17
14120;BME280;7138;49.246;9.100;2023-12-29T03:43:36;98849.00;;;9.63;78.24
14120;BME280;7138;49.246;9.100;2023-12-29T03:46:02;98853.97;;;9.66;78.06
14120;BME280;7138;49.246;9.100;2023-12-29T03:48:29;98852.31;;;9.65;78.22
14120;BME280;7138;49.246;9.100;2023-12-29T03:50:55;98849.34;;;9.67;77.96
14120;BME280;7138;49.246;9.100;2023-12-29T03:53:20;98853.13;;;9.66;77.96
14120;BME280;7138;49.246;9.100;2023-12-29T03:55:46;98850.41;;;9.66;77.87
14120;BME280;7138;49.246;9.100;2023-12-29T03:58:12;98845.31;;;9.69;77.88
14120;BME280;7138;49.246;9.100;2023-12-29T04:00:38;98846.75;;;9.60;77.81
14120;BME280;7138;49.246;9.100;2023-12-29T04:03:07;98837.00;;;9.52;78.49
14120;BME280;7138;49.246;9.100;2023-12-29T04:05:34;98840.81;;;9.51;78.53
14120;BME280;7138;49.246;9.100;2023-12-29T04:08:00;98832.38;;;9.53;78.50
14120;BME280;7138;49.246;9.100;2023-12-29T04:10:25;98835.56;;;9.62;78.50
14120;BME280;7138;49.246;9.100;2023-12-29T04:12:51;98841.03;;;9.62;78.22
14120;BME280;7138;49.246;9.100;2023-12-29T04:15:17;98831.88;;;9.56;78.57
14120;BME280;7138;49.246;9.100;2023-12-29T04:17:43;98838.41;;;9.67;78.33
14120;BME280;7138;49.246;9.100;2023-12-29T04:20:09;98842.66;;;9.74;78.12
14120;BME280;7138;49.246;9.100;2023-12-29T04:22:36;98838.53;;;9.72;78.10
14120;BME280;7138;49.246;9.100;2023-12-29T04:25:03;98844.69;;;9.67;78.20
14120;BME280;7138;49.246;9.100;2023-12-29T04:27:29;98845.31;;;9.69;78.60
14120;BME280;7138;49.246;9.100;2023-12-29T04:29:55;98845.91;;;9.71;78.50
14120;BME280;7138;49.246;9.100;2023-12-29T04:32:20;98848.28;;;9.68;78.67
14120;BME280;7138;49.246;9.100;2023-12-29T04:34:46;98843.41;;;9.70;78.65
14120;BME280;7138;49.246;9.100;2023-12-29T04:37:12;98838.28;;;9.73;78.76
14120;BME280;7138;49.246;9.100;2023-12-29T04:39:39;98835.88;;;9.77;78.63
14120;BME280;7138;49.246;9.100;2023-12-29T04:42:05;98830.41;;;9.77;78.77
14120;BME280;7138;49.246;9.100;2023-12-29T04:44:31;98844.25;;;9.70;78.87
14120;BME280;7138;49.246;9.100;2023-12-29T04:46:57;98836.25;;;9.80;78.69
14120;BME280;7138;49.246;9.100;2023-12-29T04:49:22;98837.41;;;9.84;78.82
14120;BME280;7138;49.246;9.100;2023-12-29T04:51:48;98842.63;;;9.86;78.57
14120;BME280;7138;49.246;9.100;2023-12-29T04:54:14;98849.75;;;9.87;78.33
14120;BME280;7138;49.246;9.100;2023-12-29T04:56:41;98838.81;;;9.87;78.83
14120;BME280;7138;49.246;9.100;2023-12-29T04:59:07;98849.41;;;9.95;78.57
14120;BME280;7138;49.246;9.100;2023-12-29T05:01:33;98841.44;;;9.94;78.42
14120;BME280;7138;49.246;9.100;2023-12-29T05:03:58;98843.59;;;9.92;78.44
14120;BME280;7138;49.246;9.100;2023-12-29T05:06:24;98844.03;;;9.89;78.63
14120;BME280;7138;49.246;9.100;2023-12-29T05:08:50;98845.94;;;9.88;78.74
14120;BME280;7138;49.246;9.100;2023-12-29T05:11:16;98839.78;;;9.93;78.38
14120;BME280;7138;49.246;9.100;2023-12-29T05:13:43;98847.41;;;9.91;78.67
14120;BME280;7138;49.246;9.100;2023-12-29T05:16:10;98850.47;;;9.94;78.23
14120;BME280;7138;49.246;9.100;2023-12-29T05:18:35;98849.72;;;9.99;78.21
14120;BME280;7138;49.246;9.100;2023-12-29T05:21:01;98857.59;;;9.95;78.23
14120;BME280;7138;49.246;9.100;2023-12-29T05:23:27;98850.97;;;9.91;78.70
14120;BME280;7138;49.246;9.100;2023-12-29T05:25:53;98856.44;;;9.91;78.29
14120;BME280;7138;49.246;9.100;2023-12-29T05:28:19;98849.31;;;9.90;79.10
14120;BME280;7138;49.246;9.100;2023-12-29T05:30:46;98859.75;;;9.93;79.15
14120;BME280;7138;49.246;9.100;2023-12-29T05:33:12;98847.53;;;9.84;79.61
14120;BME280;7138;49.246;9.100;2023-12-29T05:35:38;98853.34;;;9.76;80.01
14120;BME280;7138;49.246;9.100;2023-12-29T05:38:04;98850.16;;;9.79;80.10
14120;BME280;7138;49.246;9.100;2023-12-29T05:40:29;98854.06;;;9.83;80.12
14120;BME280;7138;49.246;9.100;2023-12-29T05:42:55;98849.09;;;9.80;80.11
14120;BME280;7138;49.246;9.100;2023-12-29T05:45:21;98844.31;;;9.75;80.25
14120;BME280;7138;49.246;9.100;2023-12-29T05:47:48;98841.75;;;9.69;80.78
14120;BME280;7138;49.246;9.100;2023-12-29T05:50:14;98831.16;;;9.72;80.72
14120;BME280;7138;49.246;9.100;2023-12-29T05:52:40;98829.59;;;9.76;80.42
14120;BME280;7138;49.246;9.100;2023-12-29T05:55:07;98828.28;;;9.67;80.28
14120;BME280;7138;49.246;9.100;2023-12-29T05:57:32;98825.72;;;9.61;80.80
14120;BME280;7138;49.246;9.100;2023-12-29T05:59:58;98826.19;;;9.57;80.68
14120;BME280;7138;49.246;9.100;2023-12-29T06:02:24;98839.41;;;9.49;80.79
14120;BME280;7138;49.246;9.100;2023-12-29T06:04:51;98826.56;;;9.49;81.00
14120;BME280;7138;49.246;9.100;2023-12-29T06:07:17;98828.47;;;9.49;80.94
14120;BME280;7138;49.246;9.100;2023-12-29T06:09:43;98828.94;;;9.46;81.06
14120;BME280;7138;49.246;9.100;2023-12-29T06:12:09;98826.19;;;9.46;80.66
14120;BME280;7138;49.246;9.100;2023-12-29T06:14:36;98826.91;;;9.41;80.80
14120;BME280;7138;49.246;9.100;2023-12-29T06:17:02;98833.00;;;9.32;81.32
14120;BME280;7138;49.246;9.100;2023-12-29T06:19:28;98831.09;;;9.32;81.46
14120;BME280;7138;49.246;9.100;2023-12-29T06:21:55;98832.75;;;9.33;81.33
14120;BME280;7138;49.246;9.100;2023-12-29T06:24:21;98842.59;;;9.34;81.43
14120;BME280;7138;49.246;9.100;2023-12-29T06:26:47;98835.94;;;9.42;80.99
14120;BME280;7138;49.246;9.100;2023-12-29T06:29:13;98844.06;;;9.37;81.41
14120;BME280;7138;49.246;9.100;2023-12-29T06:31:41;98837.25;;;9.39;81.44
14120;BME280;7138;49.246;9.100;2023-12-29T06:34:07;98838.94;;;9.40;81.61
14120;BME280;7138;49.246;9.100;2023-12-29T06:36:33;98838.34;;;9.38;81.65
14120;BME280;7138;49.246;9.100;2023-12-29T06:39:00;98839.03;;;9.45;81.31
14120;BME280;7138;49.246;9.100;2023-12-29T06:41:26;98832.38;;;9.53;81.29
14120;BME280;7138;49.246;9.100;2023-12-29T06:43:52;98838.41;;;9.55;80.99
14120;BME280;7138;49.246;9.100;2023-12-29T06:46:18;98833.66;;;9.62;80.68
14120;BME280;7138;49.246;9.100;2023-12-29T06:48:43;98846.50;;;9.62;80.66
14120;BME280;7138;49.246;9.100;2023-12-29T06:51:15;98835.81;;;9.60;80.74
14120;BME280;7138;49.246;9.100;2023-12-29T06:53:41;98819.50;;;9.65;80.55
14120;BME280;7138;49.246;9.100;2023-12-29T06:56:13;98820.72;;;9.57;80.52
14120;BME280;7138;49.246;9.100;2023-12-29T06:58:39;98822.41;;;9.59;80.51
14120;BME280;7138;49.246;9.100;2023-12-29T07:01:05;98824.16;;;9.65;80.36
14120;BME280;7138;49.246;9.100;2023-12-29T07:03:31;98832.84;;;9.62;80.50
14120;BME280;7138;49.246;9.100;2023-12-29T07:05:57;98836.97;;;9.64;80.31
14120;BME280;7138;49.246;9.100;2023-12-29T07:08:22;98838.06;;;9.63;80.31
14120;BME280;7138;49.246;9.100;2023-12-29T07:10:48;98837.81;;;9.65;80.23
14120;BME280;7138;49.246;9.100;2023-12-29T07:13:17;98843.78;;;9.62;80.27
14120;BME280;7138;49.246;9.100;2023-12-29T07:15:42;98847.81;;;9.59;80.05
14120;BME280;7138;49.246;9.100;2023-12-29T07:18:08;98830.81;;;9.69;79.94
14120;BME280;7138;49.246;9.100;2023-12-29T07:20:34;98849.81;;;9.64;79.98
14120;BME280;7138;49.246;9.100;2023-12-29T07:23:00;98838.31;;;9.62;80.06
14120;BME280;7138;49.246;9.100;2023-12-29T07:25:26;98842.81;;;9.68;80.07
14120;BME280;7138;49.246;9.100;2023-12-29T07:27:52;98837.47;;;9.61;79.83
14120;BME280;7138;49.246;9.100;2023-12-29T07:30:19;98847.09;;;9.64;80.01
14120;BME280;7138;49.246;9.100;2023-12-29T07:32:45;98840.78;;;9.63;79.91
14120;BME280;7138;49.246;9.100;2023-12-29T07:35:11;98847.34;;;9.62;79.87
14120;BME280;7138;49.246;9.100;2023-12-29T07:37:37;98844.59;;;9.62;80.08
14120;BME280;7138;49.246;9.100;2023-12-29T07:40:04;98846.84;;;9.65;80.08
14120;BME280;7138;49.246;9.100;2023-12-29T07:42:30;98827.84;;;9.70;79.75
14120;BME280;7138;49.246;9.100;2023-12-29T07:44:56;98831.97;;;9.73;79.90
14120;BME280;7138;49.246;9.100;2023-12-29T07:47:23;98835.28;;;9.75;80.02
14120;BME280;7138;49.246;9.100;2023-12-29T07:49:49;98835.03;;;9.76;79.79
14120;BME280;7138;49.246;9.100;2023-12-29T07:52:15;98838.16;;;9.80;79.83
14120;BME280;7138;49.246;9.100;2023-12-29T07:54:40;98839.81;;;9.81;79.67
14120;BME280;7138;49.246;9.100;2023-12-29T07:57:06;98839.22;;;9.79;79.63
14120;BME280;7138;49.246;9.100;2023-12-29T07:59:32;98839.09;;;9.74;79.69
14120;BME280;7138;49.246;9.100;2023-12-29T08:01:58;98850.88;;;9.74;79.55
14120;BME280;7138;49.246;9.100;2023-12-29T08:04:25;98842.63;;;9.86;79.59
14120;BME280;7138;49.246;9.100;2023-12-29T08:06:51;98851.91;;;9.85;79.44
14120;BME280;7138;49.246;9.100;2023-12-29T08:09:17;98851.81;;;9.80;79.77
14120;BME280;7138;49.246;9.100;2023-12-29T08:11:42;98856.59;;;9.73;79.84
14120;BME280;7138;49.246;9.100;2023-12-29T08:14:09;98854.69;;;9.73;79.85
14120;BME280;7138;49.246;9.100;2023-12-29T08:16:38;98859.41;;;9.78;80.10
14120;BME280;7138;49.246;9.100;2023-12-29T08:19:04;98847.53;;;9.84;79.86
14120;BME280;7138;49.246;9.100;2023-12-29T08:21:31;98858.78;;;9.88;79.77
14120;BME280;7138;49.246;9.100;2023-12-29T08:23:57;98856.31;;;9.86;79.65
14120;BME280;7138;49.246;9.100;2023-12-29T08:26:23;98857.59;;;9.95;79.19
14120;BME280;7138;49.246;9.100;2023-12-29T08:28:49;98862.81;;;9.97;79.21
14120;BME280;7138;49.246;9.100;2023-12-29T08:31:15;98871.41;;;10.00;79.13
14120;BME280;7138;49.246;9.100;2023-12-29T08:33:41;98865.72;;;9.90;79.22
14120;BME280;7138;49.246;9.100;2023-12-29T08:36:08;98869.94;;;9.98;78.84
14120;BME280;7138;49.246;9.100;2023-12-29T08:38:35;98869.94;;;9.98;78.96
14120;BME280;7138;49.246;9.100;2023-12-29T08:41:00;98872.13;;;9.84;79.69
14120;BME280;7138;49.246;9.100;2023-12-29T08:43:26;98884.16;;;9.83;79.80
14120;BME280;7138;49.246;9.100;2023-12-29T08:45:52;98883.06;;;9.84;79.69
14120;BME280;7138;49.246;9.100;2023-12-29T08:48:18;98885.81;;;9.84;80.00
14120;BME280;7138;49.246;9.100;2023-12-29T08:50:44;98886.16;;;9.88;79.71
14120;BME280;7138;49.246;9.100;2023-12-29T08:53:10;98892.44;;;10.00;79.84
14120;BME280;7138;49.246;9.100;2023-12-29T08:55:37;98889.94;;;9.98;79.91
14120;BME280;7138;49.246;9.100;2023-12-29T08:58:03;98879.09;;;10.03;79.87
14120;BME280;7138;49.246;9.100;2023-12-29T09:00:29;98881.94;;;10.08;79.88
14120;BME280;7138;49.246;9.100;2023-12-29T09:02:56;98877.75;;;10.18;79.49
14120;BME280;7138;49.246;9.100;2023-12-29T09:05:21;98881.06;;;10.20;79.22
14120;BME280;7138;49.246;9.100;2023-12-29T09:07:47;98879.88;;;10.27;79.02
14120;BME280;7138;49.246;9.100;2023-12-29T09:10:13;98888.34;;;10.26;78.78
14120;BME280;7138;49.246;9.100;2023-12-29T09:12:41;98886.50;;;10.43;77.90
14120;BME280;7138;49.246;9.100;2023-12-29T09:15:08;98884.22;;;10.40;78.44
14120;BME280;7138;49.246;9.100;2023-12-29T09:17:34;98881.84;;;10.43;78.10
14120;BME280;7138;49.246;9.100;2023-12-29T09:19:59;98882.50;;;10.51;78.28
14120;BME280;7138;49.246;9.100;2023-12-29T09:22:25;98870.34;;;10.58;77.97
14120;BME280;7138;49.246;9.100;2023-12-29T09:24:54;98886.03;;;10.63;77.71
14120;BME280;7138;49.246;9.100;2023-12-29T09:27:20;98882.75;;;10.78;77.94
14120;BME280;7138;49.246;9.100;2023-12-29T09:29:47;98883.84;;;10.77;76.30
14120;BME280;7138;49.246;9.100;2023-12-29T09:32:13;98879.34;;;10.87;77.11
14120;BME280;7138;49.246;9.100;2023-12-29T09:34:39;98900.69;;;11.02;75.89
14120;BME280;7138;49.246;9.100;2023-12-29T09:37:05;98889.47;;;11.04;74.86
14120;BME280;7138;49.246;9.100;2023-12-29T09:39:30;98902.09;;;11.05;75.53
14120;BME280;7138;49.246;9.100;2023-12-29T09:41:59;98893.88;;;11.05;74.59
14120;BME280;7138;49.246;9.100;2023-12-29T09:44:28;98892.22;;;11.04;74.25
14120;BME280;7138;49.246;9.100;2023-12-29T09:47:02;98884.84;;;11.04;74.21
14120;BME280;7138;49.246;9.100;2023-12-29T09:49:37;98879.34;;;11.04;73.56
14120;BME280;7138;49.246;9.100;2023-12-29T09:52:07;98885.19;;;11.08;74.08
14120;BME280;7138;49.246;9.100;2023-12-29T09:54:35;98891.50;;;11.08;73.32
14120;BME280;7138;49.246;9.100;2023-12-29T09:57:03;98891.16;;;11.21;73.58
14120;BME280;7138;49.246;9.100;2023-12-29T09:59:30;98881.94;;;11.27;73.75
14120;BME280;7138;49.246;9.100;2023-12-29T10:01:59;98889.00;;;11.23;73.62
14120;BME280;7138;49.246;9.100;2023-12-29T10:04:25;98882.31;;;11.36;73.56
14120;BME280;7138;49.246;9.100;2023-12-29T10:06:54;98880.00;;;11.45;73.96
14120;BME280;7138;49.246;9.100;2023-12-29T10:09:24;98874.59;;;11.50;72.04
14120;BME280;7138;49.246;9.100;2023-12-29T10:11:51;98866.75;;;11.58;72.05
14120;BME280;7138;49.246;9.100;2023-12-29T10:14:24;98874.38;;;11.73;72.52
14120;BME280;7138;49.246;9.100;2023-12-29T10:17:00;98862.06;;;11.76;71.02
14120;BME280;7138;49.246;9.100;2023-12-29T10:19:37;98861.34;;;11.80;71.60
14120;BME280;7138;49.246;9.100;2023-12-29T10:22:11;98868.63;;;11.92;71.94
14120;BME280;7138;49.246;9.100;2023-12-29T10:24:39;98857.72;;;11.97;72.88
14120;BME280;7138;49.246;9.100;2023-12-29T10:27:07;98844.00;;;11.97;70.64
14120;BME280;7138;49.246;9.100;2023-12-29T10:29:34;98844.75;;;12.14;70.83
14120;BME280;7138;49.246;9.100;2023-12-29T10:32:01;98843.72;;;12.20;70.68
14120;BME280;7138;49.246;9.100;2023-12-29T10:34:27;98856.28;;;12.38;70.48
14120;BME280;7138;49.246;9.100;2023-12-29T10:36:57;98830.22;;;12.40;69.91
14120;BME280;7138;49.246;9.100;2023-12-29T10:39:24;98829.13;;;12.41;69.02
14120;BME280;7138;49.246;9.100;2023-12-29T10:41:50;98831.50;;;12.60;68.97
14120;BME280;7138;49.246;9.100;2023-12-29T10:44:27;98828.78;;;12.65;67.43
14120;BME280;7138;49.246;9.100;2023-12-29T10:46:53;98813.78;;;12.45;66.24
14120;BME280;7138;49.246;9.100;2023-12-29T10:49:20;98818.47;;;12.45;66.73
14120;BME280;7138;49.246;9.100;2023-12-29T10:51:46;98816.75;;;12.39;67.46
14120;BME280;7138;49.246;9.100;2023-12-29T10:54:20;98814.81;;;12.39;68.03
14120;BME280;7138;49.246;9.100;2023-12-29T10:57:00;98808.75;;;12.37;69.45
14120;BME280;7138;49.246;9.100;2023-12-29T10:59:28;98809.63;;;12.43;66.64
14120;BME280;7138;49.246;9.100;2023-12-29T11:01:55;98797.56;;;12.44;66.17
14120;BME280;7138;49.246;9.100;2023-12-29T11:04:23;98802.47;;;12.42;66.48
14120;BME280;7138;49.246;9.100;2023-12-29T11:06:49;98810.25;;;12.50;66.63
14120;BME280;7138;49.246;9.100;2023-12-29T11:09:28;98807.50;;;12.50;66.48
14120;BME280;7138;49.246;9.100;2023-12-29T11:11:56;98809.63;;;12.43;66.49
14120;BME280;7138;49.246;9.100;2023-12-29T11:14:23;98806.69;;;12.50;67.18
14120;BME280;7138;49.246;9.100;2023-12-29T11:16:52;98805.38;;;12.57;66.39
14120;BME280;7138;49.246;9.100;2023-12-29T11:19:18;98794.22;;;12.69;66.62
14120;BME280;7138;49.246;9.100;2023-12-29T11:21:46;98792.13;;;12.81;66.68
14120;BME280;7138;49.246;9.100;2023-12-29T11:24:14;98790.50;;;12.85;66.49
14120;BME280;7138;49.246;9.100;2023-12-29T11:26:41;98800.19;;;12.93;66.88
14120;BME280;7138;49.246;9.100;2023-12-29T11:29:11;98799.66;;;12.96;66.39
14120;BME280;7138;49.246;9.100;2023-12-29T11:31:37;98787.34;;;13.03;65.72
14120;BME280;7138;49.246;9.100;2023-12-29T11:34:09;98797.53;;;13.03;65.51
14120;BME280;7138;49.246;9.100;2023-12-29T11:36:45;98793.47;;;13.11;66.27
14120;BME280;7138;49.246;9.100;2023-12-29T11:39:21;98789.63;;;13.12;63.97
14120;BME280;7138;49.246;9.100;2023-12-29T11:42:00;98801.94;;;13.04;65.42
14120;BME280;7138;49.246;9.100;2023-12-29T11:44:28;98794.47;;;12.99;64.02
14120;BME280;7138;49.246;9.100;2023-12-29T11:46:56;98781.50;;;12.90;64.81
14120;BME280;7138;49.246;9.100;2023-12-29T11:49:22;98775.75;;;12.96;65.90
14120;BME280;7138;49.246;9.100;2023-12-29T11:51:49;98774.34;;;12.89;65.13
14120;BME280;7138;49.246;9.100;2023-12-29T11:54:23;98768.66;;;13.00;64.35
14120;BME280;7138;49.246;9.100;2023-12-29T11:56:50;98769.13;;;12.92;64.05
14120;BME280;7138;49.246;9.100;2023-12-29T11:59:18;98765.47;;;12.82;63.94
14120;BME280;7138;49.246;9.100;2023-12-29T12:01:47;98767.66;;;12.80;65.10
14120;BME280;7138;49.246;9.100;2023-12-29T12:04:37;98757.38;;;12.65;64.47
14120;BME280;7138;49.246;9.100;2023-12-29T12:07:16;98751.38;;;12.68;64.53
14120;BME280;7138;49.246;9.100;2023-12-29T12:09:43;98749.81;;;12.77;65.72
14120;BME280;7138;49.246;9.100;2023-12-29T12:12:10;98749.56;;;12.84;64.39
14120;BME280;7138;49.246;9.100;2023-12-29T12:14:53;98751.13;;;12.74;63.61
14120;BME280;7138;49.246;9.100;2023-12-29T12:17:30;98750.00;;;12.70;63.79
14120;BME280;7138;49.246;9.100;2023-12-29T12:19:59;98748.34;;;12.69;64.30
14120;BME280;7138;49.246;9.100;2023-12-29T12:22:29;98749.97;;;12.65;65.41
14120;BME280;7138;49.246;9.100;2023-12-29T12:24:58;98741.22;;;12.68;64.62
14120;BME280;7138;49.246;9.100;2023-12-29T12:27:24;98742.69;;;12.49;64.33
14120;BME280;7138;49.246;9.100;2023-12-29T12:29:53;98741.03;;;12.48;65.44
14120;BME280;7138;49.246;9.100;2023-12-29T12:32:22;98749.81;;;12.45;65.15
14120;BME280;7138;49.246;9.100;2023-12-29T12:34:48;98752.03;;;12.48;64.67
14120;BME280;7138;49.246;9.100;2023-12-29T12:37:19;98755.41;;;12.60;65.00
14120;BME280;7138;49.246;9.100;2023-12-29T12:39:45;98750.75;;;12.61;65.44
14120;BME280;7138;49.246;9.100;2023-12-29T12:42:13;98747.66;;;12.52;64.64
14120;BME280;7138;49.246;9.100;2023-12-29T12:44:42;98750.03;;;12.43;64.23
14120;BME280;7138;49.246;9.100;2023-12-29T12:47:18;98742.59;;;12.39;64.18
14120;BME280;7138;49.246;9.100;2023-12-29T12:49:50;98738.66;;;12.30;64.66
14120;BME280;7138;49.246;9.100;2023-12-29T12:52:16;98746.38;;;12.33;65.24
14120;BME280;7138;49.246;9.100;2023-12-29T12:54:42;98735.72;;;12.36;64.62
14120;BME280;7138;49.246;9.100;2023-12-29T12:57:08;98739.38;;;12.47;65.07
14120;BME280;7138;49.246;9.100;2023-12-29T12:59:36;98742.41;;;12.45;64.61
14120;BME280;7138;49.246;9.100;2023-12-29T13:02:03;98746.25;;;12.44;64.78
14120;BME280;7138;49.246;9.100;2023-12-29T13:04:31;98753.06;;;12.42;64.92
14120;BME280;7138;49.246;9.100;2023-12-29T13:06:57;98747.06;;;12.45;65.42
14120;BME280;7138;49.246;9.100;2023-12-29T13:09:23;98750.66;;;12.51;64.24
14120;BME280;7138;49.246;9.100;2023-12-29T13:11:49;98745.66;;;12.42;65.38
14120;BME280;7138;49.246;9.100;2023-12-29T13:14:21;98738.50;;;12.41;64.80
14120;BME280;7138;49.246;9.100;2023-12-29T13:16:49;98740.38;;;12.36;65.91